createdAt,value
2022-11-17T00:04:46.151Z,8.2
2022-11-17T00:10:37.398Z,8.2
2022-11-17T00:16:17.960Z,8.3
2022-11-17T00:21:40.893Z,8.3
2022-11-17T00:27:16.895Z,8.5
2022-11-17T00:32:54.948Z,8.6
2022-11-17T00:38:25.119Z,8.6
2022-11-17T00:43:54.188Z,8.8
2022-11-17T00:49:10.612Z,9.3
2022-11-17T00:54:57.852Z,9.3
2022-11-17T01:00:30.346Z,9.4
2022-11-17T01:05:46.950Z,9.5
2022-11-17T01:11:43.614Z,9.6
2022-11-17T01:16:52.874Z,9.6
2022-11-17T01:22:28.876Z,9.6
2022-11-17T01:28:16.840Z,9.5
2022-11-17T01:33:54.445Z,9.1
2022-11-17T01:39:25.160Z,9.1
2022-11-17T01:44:33.698Z,9.4
2022-11-17T01:50:27.773Z,9.5
2022-11-17T01:55:57.850Z,9.5
2022-11-17T02:01:16.811Z,9.3
2022-11-17T02:06:49.422Z,9.2
2022-11-17T02:12:23.761Z,9.1
2022-11-17T02:18:07.470Z,9.1
2022-11-17T02:23:36.730Z,9.1
2022-11-17T02:29:03.916Z,9.1
2022-11-17T02:34:33.237Z,9.1
2022-11-17T02:40:22.813Z,9
2022-11-17T02:45:39.495Z,8.8
2022-11-17T02:51:29.961Z,8.9
2022-11-17T02:56:58.535Z,9.1
2022-11-17T03:02:25.074Z,9.2
2022-11-17T03:07:55.287Z,9.3
2022-11-17T03:13:32.734Z,9.3
2022-11-17T03:19:04.170Z,9.5
2022-11-17T03:24:47.611Z,9.6
2022-11-17T03:30:04.973Z,9.6
2022-11-17T03:35:43.038Z,9.6
2022-11-17T03:41:26.134Z,9.5
2022-11-17T03:46:44.599Z,9.5
2022-11-17T03:52:34.670Z,9.8
2022-11-17T03:57:58.963Z,9.8
2022-11-17T04:03:14.776Z,10
2022-11-17T04:09:04.894Z,9.9
2022-11-17T04:14:21.273Z,10.1
2022-11-17T04:19:58.796Z,10.1
2022-11-17T04:25:53.212Z,10.2
2022-11-17T04:31:00.959Z,10.2
2022-11-17T04:36:32.059Z,10.2
2022-11-17T04:42:12.278Z,10.1
2022-11-17T04:47:48.972Z,10.4
2022-11-17T04:53:24.142Z,10.5
2022-11-17T04:59:08.356Z,10.5
2022-11-17T05:04:27.011Z,10.5
2022-11-17T05:09:53.757Z,10.5
2022-11-17T05:15:46.424Z,10.6
2022-11-17T05:21:12.899Z,10.7
2022-11-17T05:26:33.953Z,10.7
2022-11-17T05:32:18.202Z,10.6
2022-11-17T05:37:38.990Z,10.5
2022-11-17T05:43:19.930Z,10.9
2022-11-17T05:48:54.339Z,10.8
2022-11-17T05:54:24.628Z,10.8
2022-11-17T06:00:03.265Z,10.8
2022-11-17T06:05:39.088Z,10.9
2022-11-17T06:11:20.541Z,10.9
2022-11-17T06:16:30.756Z,10.9
2022-11-17T06:22:12.911Z,11
2022-11-17T06:28:04.430Z,11
2022-11-17T06:33:31.943Z,11.1
2022-11-17T06:38:52.603Z,11.1
2022-11-17T06:44:35.470Z,11.2
2022-11-17T06:49:54.902Z,11.4
2022-11-17T06:55:29.566Z,11.6
2022-11-17T07:01:21.412Z,11.6
2022-11-17T07:06:41.041Z,11.7
2022-11-17T07:12:05.622Z,12
2022-11-17T07:18:00.432Z,12
2022-11-17T07:23:33.471Z,11.9
2022-11-17T07:28:46.289Z,11.9
2022-11-17T07:34:22.412Z,11.9
2022-11-17T07:39:56.348Z,12.1
2022-11-17T07:45:31.681Z,11.7
2022-11-17T07:51:24.948Z,12.1
2022-11-17T07:56:42.649Z,12.6
2022-11-17T08:02:21.504Z,13.1
2022-11-17T08:07:51.069Z,13
2022-11-17T08:13:25.291Z,13.2
2022-11-17T08:18:52.290Z,13.3
2022-11-17T08:24:22.286Z,13.3
2022-11-17T08:30:22.063Z,13.3
2022-11-17T08:35:53.420Z,13
2022-11-17T08:41:05.965Z,13
2022-11-17T08:46:41.658Z,12.9
2022-11-17T08:52:33.451Z,12.8
2022-11-17T08:57:47.915Z,12.8
2022-11-17T09:03:33.319Z,12.7
2022-11-17T09:09:08.470Z,12.8
2022-11-17T09:14:31.500Z,13
2022-11-17T09:20:04.013Z,13.1
2022-11-17T09:25:59.152Z,13.1
2022-11-17T09:31:29.583Z,13
2022-11-17T09:37:12.296Z,13.2
2022-11-17T09:42:33.219Z,13.2
2022-11-17T09:48:34.007Z,13.2
2022-11-17T09:53:35.761Z,13.2
2022-11-17T09:59:11.478Z,13.2
2022-11-17T10:04:56.300Z,13.2
2022-11-17T10:10:15.284Z,13.2
2022-11-17T10:16:05.091Z,13.2
2022-11-17T10:21:45.790Z,13.1
2022-11-17T10:27:09.045Z,13.1
2022-11-17T10:32:35.372Z,13.1
2022-11-17T10:38:16.191Z,13.1
2022-11-17T10:43:43.324Z,13.1
2022-11-17T10:49:20.715Z,13.2
2022-11-17T10:54:56.489Z,13.3
2022-11-17T11:00:44.509Z,13.5
2022-11-17T11:05:54.882Z,13.4
2022-11-17T11:11:45.094Z,13.2
2022-11-17T11:17:03.175Z,13
2022-11-17T11:23:00.229Z,13.4
2022-11-17T11:28:16.563Z,13.7
2022-11-17T11:34:08.143Z,14
2022-11-17T11:39:32.116Z,13.3
2022-11-17T11:44:59.629Z,12
2022-11-17T11:50:41.812Z,12.3
2022-11-17T11:56:06.559Z,13.1
2022-11-17T12:01:36.963Z,13.4
2022-11-17T12:07:11.717Z,13.5
2022-11-17T12:12:57.789Z,13.4
2022-11-17T12:18:27.790Z,13.9
2022-11-17T12:24:14.960Z,14
2022-11-17T12:29:46.402Z,14.1
2022-11-17T12:34:57.201Z,14
2022-11-17T12:40:36.077Z,13.8
2022-11-17T12:46:28.213Z,13.5
2022-11-17T12:52:04.537Z,13.3
2022-11-17T12:57:21.187Z,13.2
2022-11-17T13:02:51.215Z,11.9
2022-11-17T13:08:35.431Z,11.3
2022-11-17T13:14:12.853Z,11.5
2022-11-17T13:19:27.989Z,11.6
2022-11-17T13:25:25.702Z,11.4
2022-11-17T13:31:00.292Z,11.3
2022-11-17T13:36:19.330Z,11.3
2022-11-17T13:41:55.744Z,11.5
2022-11-17T13:47:25.587Z,11.7
2022-11-17T13:53:05.669Z,12.4
2022-11-17T13:58:26.810Z,12.9
2022-11-17T14:04:18.348Z,12.4
2022-11-17T14:09:36.878Z,12.6
2022-11-17T14:15:03.611Z,12.3
2022-11-17T14:20:54.771Z,12.1
2022-11-17T14:26:15.344Z,12
2022-11-17T14:31:59.489Z,11.9
2022-11-17T14:37:20.071Z,12.2
2022-11-17T14:42:49.353Z,12.7
2022-11-17T14:48:37.256Z,12.3
2022-11-17T14:54:02.636Z,12.1
2022-11-17T14:59:29.989Z,11.9
2022-11-17T15:05:32.008Z,11.8
2022-11-17T15:10:44.966Z,11.8
2022-11-17T15:16:17.662Z,11.8
2022-11-17T15:22:01.489Z,11.7
2022-11-17T15:27:42.145Z,11.5
2022-11-17T15:33:12.435Z,11.3
2022-11-17T15:38:33.822Z,10.6
2022-11-17T15:44:00.709Z,10.4
2022-11-17T15:49:50.572Z,10.3
2022-11-17T15:55:17.557Z,10.3
2022-11-17T16:01:02.019Z,10.2
2022-11-17T16:06:30.757Z,10.3
2022-11-17T16:12:05.363Z,10.7
2022-11-17T16:17:31.401Z,10.5
2022-11-17T16:23:04.488Z,10.6
2022-11-17T16:28:48.267Z,10.2
2022-11-17T16:34:22.683Z,10
2022-11-17T16:39:37.234Z,10
2022-11-17T16:45:15.838Z,10.1
2022-11-17T16:50:56.507Z,10.1
2022-11-17T16:56:34.380Z,10.1
2022-11-17T17:01:57.402Z,10
2022-11-17T17:07:37.846Z,10
2022-11-17T17:13:14.457Z,10
2022-11-17T17:18:27.769Z,10.1
2022-11-17T17:23:56.063Z,10.1
2022-11-17T17:29:34.719Z,10.1
2022-11-17T17:35:07.842Z,10
2022-11-17T17:40:57.698Z,10
2022-11-17T17:46:32.397Z,9.9
2022-11-17T17:51:47.538Z,10.6
2022-11-17T17:57:34.107Z,10.4
2022-11-17T18:03:00.301Z,10.3
2022-11-17T18:08:28.146Z,10.4
2022-11-17T18:19:35.219Z,9.7
2022-11-17T18:25:07.788Z,9.4
2022-11-17T18:30:55.338Z,9.6
2022-11-17T18:36:11.455Z,9.1
2022-11-17T18:41:45.713Z,8.8
2022-11-17T18:47:38.209Z,8.6
2022-11-17T18:53:01.894Z,8.5
2022-11-17T18:58:25.443Z,8.4
2022-11-17T19:04:06.714Z,8.4
2022-11-17T19:09:51.691Z,8.5
2022-11-17T19:15:12.596Z,8.5
2022-11-17T19:20:41.841Z,8.4
2022-11-17T19:26:16.188Z,8.5
2022-11-17T19:31:53.368Z,8.5
2022-11-17T19:37:28.258Z,8.6
2022-11-17T19:42:55.264Z,8.5
2022-11-17T19:48:21.734Z,8.5
2022-11-17T19:54:10.830Z,8.4
2022-11-17T19:59:37.595Z,8.4
2022-11-17T20:05:18.506Z,8.4
2022-11-17T20:10:44.951Z,8.3
2022-11-17T20:15:59.543Z,8.4
2022-11-17T20:21:35.753Z,8.3
2022-11-17T20:27:29.034Z,8.2
2022-11-17T20:32:52.420Z,8.3
2022-11-17T20:38:26.865Z,8.3
2022-11-17T20:43:56.727Z,8.3
2022-11-17T20:49:36.667Z,8.3
2022-11-17T20:54:57.956Z,8.3
2022-11-17T21:00:37.607Z,8.3
2022-11-17T21:05:53.144Z,8.2
2022-11-17T21:11:39.317Z,8.3
2022-11-17T21:16:59.359Z,8.3
2022-11-17T21:22:42.232Z,8.2
2022-11-17T21:28:18.851Z,8.2
2022-11-17T21:33:34.674Z,8.3
2022-11-17T21:39:21.800Z,8.3
2022-11-17T21:44:41.747Z,8.3
2022-11-17T21:50:14.932Z,8.4
2022-11-17T21:55:46.035Z,8.3
2022-11-17T22:01:15.063Z,8.3
2022-11-17T22:07:09.539Z,8.3
2022-11-17T22:12:36.016Z,8.2
2022-11-17T22:17:52.086Z,8.2
2022-11-17T22:23:50.097Z,8.3
2022-11-17T22:29:12.019Z,8.2
2022-11-17T22:34:34.276Z,8.3
2022-11-17T22:40:06.244Z,8.3
2022-11-17T22:45:50.576Z,8.4
2022-11-17T22:51:23.443Z,8.4
2022-11-17T22:56:43.397Z,8.4
2022-11-17T23:02:35.119Z,8.4
2022-11-17T23:08:06.762Z,8.4
2022-11-17T23:13:35.936Z,8.6
2022-11-17T23:19:04.943Z,8.7
2022-11-17T23:24:43.603Z,8.7
2022-11-17T23:30:21.224Z,8.6
2022-11-17T23:35:48.546Z,8.6
2022-11-17T23:40:59.748Z,8.4
2022-11-17T23:46:43.873Z,8.3
2022-11-17T23:52:05.976Z,8
2022-11-17T23:57:45.762Z,8
